Terminal Aerodrome Forecast
Issued by NWS

Home | Current Version | Previous Version | Text Only | Print | Product List | Glossary On
Versions: 1 2 3 4 5 6 7 8 9 10 11 12 13 14
823
FTUS45 KREV 071739
TAFMMH
TAF
KMMH 071739Z 0718/0818 VRB04KT P6SM SCT180
     FM072300 18007KT P6SM SCT100 OVC150
     FM080300 29007KT P6SM VCSH SCT045 OVC060
     FM080800 27010KT 4SM -SN BKN020 OVC045=

USA.gov is the U.S. government's official web portal to all federal, state and local government web resources and services.